Time;durP1;ratioP1;P1;durP2;ratioP2;P2;SDS_P1;SDS_P2;PMS_P1;PMS_P2;Temp;Humidity;BMP_temperature;BMP_pressure;BME280_temperature;BME280_humidity;BME280_pressure;Samples;Min_cycle;Max_cycle;Signal;HPM_P1;HPM_P2
2023/09/26 00:01:26;;;;;;;;;;;;;;;;;;6302143;28;19912;-83
2023/09/26 00:04:26;;;;;;;;;;;;;;;;;;6303491;28;19976;-83
2023/09/26 00:07:27;;;;;;;;;;;;;;;;;;6283649;28;19905;-83
2023/09/26 00:10:27;;;;;;;;;;;;;;;;;;6283540;28;19912;-83
2023/09/26 00:13:28;;;;;;;;;;;;;;;;;;6301807;28;19910;-83
2023/09/26 00:16:28;;;;;;;;;;;;;;;;;;6283750;28;20285;-84
2023/09/26 00:19:28;;;;;;;;;;;;;;;;;;6300402;28;20281;-83
2023/09/26 00:22:28;;;;;;;;;;;;;;;;;;6300334;28;20003;-83
2023/09/26 00:25:29;;;;;;;;;;;;;;;;;;6299875;28;19987;-84
2023/09/26 00:28:29;;;;;;;;;;;;;;;;;;6282398;28;20345;-84
2023/09/26 00:31:30;;;;;;;;;;;;;;;;;;6299614;28;19904;-84
2023/09/26 00:34:30;;;;;;;;;;;;;;;;;;6299773;28;19904;-84
2023/09/26 00:37:31;;;;;;;;;;;;;;;;;;6281883;28;20305;-83
2023/09/26 00:40:31;;;;;;;;;;;;;;;;;;6299667;28;19908;-84
2023/09/26 00:43:31;;;;;;;;;;;;;;;;;;6281799;28;19912;-83
2023/09/26 00:46:31;;;;;;;;;;;;;;;;;;6282216;28;19909;-83
2023/09/26 00:49:31;;;;;;;;;;;;;;;;;;6281747;28;20345;-84
2023/09/26 00:52:32;;;;;;;;;;;;;;;;;;6299929;28;20311;-84
2023/09/26 00:55:32;;;;;;;;;;;;;;;;;;6299150;28;19959;-83
2023/09/26 00:58:32;;;;;;;;;;;;;;;;;;6299451;28;19962;-83
2023/09/26 01:01:32;;;;;;;;;;;;;;;;;;6281103;28;19908;-84
2023/09/26 01:04:32;;;;;;;;;;;;;;;;;;6281037;28;19995;-84
2023/09/26 01:07:33;;;;;;;;;;;;;;;;;;6298891;28;19958;-83
2023/09/26 01:10:33;;;;;;;;;;;;;;;;;;6298774;28;19989;-84
2023/09/26 01:13:33;;;;;;;;;;;;;;;;;;6280813;28;20358;-83
2023/09/26 01:16:33;;;;;;;;;;;;;;;;;;6298571;28;19916;-83
2023/09/26 01:19:33;;;;;;;;;;;;;;;;;;6299267;28;20354;-83
2023/09/26 01:22:33;;;;;;;;;;;;;;;;;;6280640;28;19909;-84
2023/09/26 01:25:33;;;;;;;;;;;;;;;;;;6298371;28;20058;-84
2023/09/26 01:28:33;;;;;;;;;;;;;;;;;;6298924;28;20389;-84
2023/09/26 01:31:33;;;;;;;;;;;;;;;;;;6280368;28;20307;-83
2023/09/26 01:34:34;;;;;;;;;;;;;;;;;;6280125;28;20358;-84
2023/09/26 01:37:34;;;;;;;;;;;;;;;;;;6297677;28;19908;-84
2023/09/26 01:40:34;;;;;;;;;;;;;;;;;;6298120;28;19904;-84
2023/09/26 01:43:34;;;;;;;;;;;;;;;;;;6298181;28;19908;-83
2023/09/26 01:46:35;;;;;;;;;;;;;;;;;;6298235;28;19904;-88
2023/09/26 01:49:35;;;;;;;;;;;;;;;;;;6297961;28;20286;-89
2023/09/26 01:52:35;;;;;;;;;;;;;;;;;;6298557;28;20343;-89
2023/09/26 01:55:35;;;;;;;;;;;;;;;;;;6298202;28;19977;-90
2023/09/26 01:58:36;;;;;;;;;;;;;;;;;;6298307;28;19947;-89
2023/09/26 02:01:36;;;;;;;;;;;;;;;;;;6279997;28;19905;-90
2023/09/26 02:04:36;;;;;;;;;;;;;;;;;;6297872;28;20406;-89
2023/09/26 02:07:36;;;;;;;;;;;;;;;;;;6279794;28;20411;-90
2023/09/26 02:10:36;;;;;;;;;;;;;;;;;;6297893;28;19913;-90
2023/09/26 02:13:36;;;;;;;;;;;;;;;;;;6280405;28;19904;-89
2023/09/26 02:16:36;;;;;;;;;;;;;;;;;;6297698;28;19919;-89
2023/09/26 02:19:39;;;;;;;;;;;;;;;;;;6279573;28;20388;-89
2023/09/26 02:22:39;;;;;;;;;;;;;;;;;;6298214;28;20005;-90
2023/09/26 02:25:39;;;;;;;;;;;;;;;;;;6279611;28;20354;-89
2023/09/26 02:28:40;;;;;;;;;;;;;;;;;;6297563;28;20333;-90
2023/09/26 02:31:40;;;;;;;;;;;;;;;;;;6298182;28;20358;-90
2023/09/26 02:34:46;;;;;;;;;;;;;;;;;;6297769;28;19911;-89
2023/09/26 02:37:46;;;;;;;;;;;;;;;;;;6297398;28;20281;-90
2023/09/26 02:40:46;;;;;;;;;;;;;;;;;;6279616;28;20362;-89
2023/09/26 02:43:49;;;;;;;;;;;;;;;;;;6297299;28;20306;-90
2023/09/26 02:46:50;;;;;;;;;;;;;;;;;;6279824;28;20278;-85
2023/09/26 02:49:50;;;;;;;;;;;;;;;;;;6300639;28;19911;-85
2023/09/26 02:52:50;;;;;;;;;;;;;;;;;;6302427;28;19905;-84
2023/09/26 02:55:51;;;;;;;;;;;;;;;;;;6301992;28;19951;-85
2023/09/26 02:58:53;;;;;;;;;;;;;;;;;;6302673;28;19919;-84
2023/09/26 03:01:53;;;;;;;;;;;;;;;;;;6283920;28;19908;-85
2023/09/26 03:04:53;;;;;;;;;;;;;;;;;;6301889;28;20297;-85
2023/09/26 03:07:53;;;;;;;;;;;;;;;;;;6283958;28;19912;-85
2023/09/26 03:10:53;;;;;;;;;;;;;;;;;;6301550;28;20007;-84
2023/09/26 03:13:53;;;;;;;;;;;;;;;;;;6301634;28;19955;-84
2023/09/26 03:16:53;;;;;;;;;;;;;;;;;;6283667;28;19943;-84
2023/09/26 03:19:53;;;;;;;;;;;;;;;;;;6283919;28;19911;-84
2023/09/26 03:22:54;;;;;;;;;;;;;;;;;;6302161;28;19905;-85
2023/09/26 03:25:54;;;;;;;;;;;;;;;;;;6283718;28;19904;-85
2023/09/26 03:28:54;;;;;;;;;;;;;;;;;;6283629;28;19923;-85
2023/09/26 03:31:54;;;;;;;;;;;;;;;;;;6283391;28;20405;-85
2023/09/26 03:34:54;;;;;;;;;;;;;;;;;;6301307;28;20278;-85
2023/09/26 03:37:54;;;;;;;;;;;;;;;;;;6301909;28;19909;-84
2023/09/26 03:40:54;;;;;;;;;;;;;;;;;;6283176;28;20278;-86
2023/09/26 03:43:54;;;;;;;;;;;;;;;;;;6301274;28;19951;-86
2023/09/26 03:46:55;;;;;;;;;;;;;;;;;;6301313;28;19910;-84
2023/09/26 03:49:55;;;;;;;;;;;;;;;;;;6301120;28;20256;-85
2023/09/26 03:52:55;;;;;;;;;;;;;;;;;;6300964;28;19911;-85
2023/09/26 03:55:55;;;;;;;;;;;;;;;;;;6300926;28;19944;-85
2023/09/26 03:58:56;;;;;;;;;;;;;;;;;;6301020;28;19991;-89
2023/09/26 04:01:56;;;;;;;;;;;;;;;;;;6281654;28;19904;-89
2023/09/26 04:04:56;;;;;;;;;;;;;;;;;;6282871;28;19912;-89
2023/09/26 04:07:57;;;;;;;;;;;;;;;;;;6282900;28;19911;-88
2023/09/26 04:10:57;;;;;;;;;;;;;;;;;;6282608;28;19991;-88
2023/09/26 04:13:57;;;;;;;;;;;;;;;;;;6282364;28;19969;-88
2023/09/26 04:16:57;;;;;;;;;;;;;;;;;;6300866;28;19919;-88
2023/09/26 04:19:57;;;;;;;;;;;;;;;;;;6282299;28;19966;-88
2023/09/26 04:22:57;;;;;;;;;;;;;;;;;;6282209;28;20370;-88
2023/09/26 04:25:57;;;;;;;;;;;;;;;;;;6282059;28;20329;-88
2023/09/26 04:28:58;;;;;;;;;;;;;;;;;;6282018;28;19904;-88
2023/09/26 04:31:58;;;;;;;;;;;;;;;;;;6299908;28;20259;-88
2023/09/26 04:34:58;;;;;;;;;;;;;;;;;;6281276;28;19950;-88
2023/09/26 04:37:58;;;;;;;;;;;;;;;;;;6281986;28;19962;-88
2023/09/26 04:40:58;;;;;;;;;;;;;;;;;;6300105;28;20243;-88
2023/09/26 04:43:58;;;;;;;;;;;;;;;;;;6281853;28;19911;-88
2023/09/26 04:46:58;;;;;;;;;;;;;;;;;;6281760;28;19951;-89
2023/09/26 04:49:58;;;;;;;;;;;;;;;;;;6299518;28;20330;-88
2023/09/26 04:52:59;;;;;;;;;;;;;;;;;;6281434;28;19904;-88
2023/09/26 04:55:59;;;;;;;;;;;;;;;;;;6281406;28;19958;-87
2023/09/26 04:58:59;;;;;;;;;;;;;;;;;;6299320;28;19954;-88
2023/09/26 05:02:01;;;;;;;;;;;;;;;;;;6299105;28;19938;-88
2023/09/26 05:05:03;;;;;;;;;;;;;;;;;;6299413;28;19962;-88
2023/09/26 05:08:03;;;;;;;;;;;;;;;;;;6299744;28;19923;-84
2023/09/26 05:11:03;;;;;;;;;;;;;;;;;;6281470;28;19916;-85
2023/09/26 05:14:03;;;;;;;;;;;;;;;;;;6280845;28;19908;-85
2023/09/26 05:17:05;;;;;;;;;;;;;;;;;;6280871;28;20025;-88
2023/09/26 05:20:07;;;;;;;;;;;;;;;;;;6298999;28;19904;-88
2023/09/26 05:23:08;;;;;;;;;;;;;;;;;;6298578;28;20402;-88
2023/09/26 05:26:08;;;;;;;;;;;;;;;;;;6281972;28;19904;-87
2023/09/26 05:29:08;;;;;;;;;;;;;;;;;;6280791;28;19927;-87
2023/09/26 05:32:08;;;;;;;;;;;;;;;;;;6299205;28;19954;-86
2023/09/26 05:35:08;;;;;;;;;;;;;;;;;;6298617;28;19904;-88
2023/09/26 05:38:08;;;;;;;;;;;;;;;;;;6280484;28;19908;-89
2023/09/26 05:41:08;;;;;;;;;;;;;;;;;;6298362;28;19911;-86
2023/09/26 05:44:09;;;;;;;;;;;;;;;;;;6298598;28;19905;-88
2023/09/26 05:47:09;;;;;;;;;;;;;;;;;;6298219;28;20359;-87
2023/09/26 05:50:10;;;;;;;;;;;;;;;;;;6299485;28;19911;-88
2023/09/26 05:53:10;;;;;;;;;;;;;;;;;;6280213;28;19905;-88
2023/09/26 05:56:10;;;;;;;;;;;;;;;;;;6298047;28;19908;-88
2023/09/26 05:59:10;;;;;;;;;;;;;;;;;;6298715;28;19912;-88
2023/09/26 06:02:10;;;;;;;;;;;;;;;;;;6298699;28;19905;-88
2023/09/26 06:05:13;;;;;;;;;;;;;;;;;;6280360;28;19911;-89
2023/09/26 06:08:13;;;;;;;;;;;;;;;;;;6298561;28;19915;-88
2023/09/26 06:11:14;;;;;;;;;;;;;;;;;;6279723;28;19916;-88
2023/09/26 06:14:14;;;;;;;;;;;;;;;;;;6279894;28;19908;-88
2023/09/26 06:17:14;;;;;;;;;;;;;;;;;;6279934;28;19912;-88
2023/09/26 06:20:15;;;;;;;;;;;;;;;;;;6297721;28;19970;-88
2023/09/26 06:23:15;;;;;;;;;;;;;;;;;;6299270;28;19904;-88
2023/09/26 06:26:15;;;;;;;;;;;;;;;;;;6306032;28;19927;-84
2023/09/26 06:29:17;;;;;;;;;;;;;;;;;;6306642;28;19958;-85
2023/09/26 06:32:17;;;;;;;;;;;;;;;;;;6306049;28;19950;-84
2023/09/26 06:35:17;;;;;;;;;;;;;;;;;;6287874;28;19908;-84
2023/09/26 06:38:17;;;;;;;;;;;;;;;;;;6306202;28;19904;-84
2023/09/26 06:41:17;;;;;;;;;;;;;;;;;;6306419;28;19912;-84
2023/09/26 06:44:17;;;;;;;;;;;;;;;;;;6306058;28;19904;-84
2023/09/26 06:47:18;;;;;;;;;;;;;;;;;;6305740;28;19916;-84
2023/09/26 06:50:18;;;;;;;;;;;;;;;;;;6288119;28;20235;-84
2023/09/26 06:53:19;;;;;;;;;;;;;;;;;;6305528;28;19955;-83
2023/09/26 06:56:20;;;;;;;;;;;;;;;;;;6306147;28;19908;-84
2023/09/26 06:59:20;;;;;;;;;;;;;;;;;;6287598;28;20390;-84
2023/09/26 07:02:20;;;;;;;;;;;;;;;;;;6287936;28;19904;-84
2023/09/26 07:05:21;;;;;;;;;;;;;;;;;;6305903;28;19927;-84
2023/09/26 07:08:21;;;;;;;;;;;;;;;;;;6305464;28;20339;-83
2023/09/26 07:11:22;;;;;;;;;;;;;;;;;;6305470;28;19991;-84
2023/09/26 07:14:22;;;;;;;;;;;;;;;;;;6305323;28;20401;-83
2023/09/26 07:17:22;;;;;;;;;;;;;;;;;;6305934;28;19912;-84
2023/09/26 07:20:23;;;;;;;;;;;;;;;;;;6305312;28;19904;-83
2023/09/26 07:23:23;;;;;;;;;;;;;;;;;;6287429;28;19908;-84
2023/09/26 07:26:23;;;;;;;;;;;;;;;;;;6287241;28;19908;-85
2023/09/26 07:29:26;;;;;;;;;;;;;;;;;;6305191;28;19912;-84
2023/09/26 07:32:30;;;;;;;;;;;;;;;;;;6287240;28;19954;-84
2023/09/26 07:35:30;;;;;;;;;;;;;;;;;;6286674;28;19912;-84
2023/09/26 07:38:30;;;;;;;;;;;;;;;;;;6283495;28;19911;-84
2023/09/26 07:41:36;;;;;;;;;;;;;;;;;;6301544;28;19904;-84
2023/09/26 07:44:36;;;;;;;;;;;;;;;;;;6283461;28;19904;-83
2023/09/26 07:47:36;;;;;;;;;;;;;;;;;;6301703;28;20347;-84
2023/09/26 07:50:36;;;;;;;;;;;;;;;;;;6301330;28;19947;-84
2023/09/26 07:53:36;;;;;;;;;;;;;;;;;;6283651;28;19914;-84
2023/09/26 07:56:37;;;;;;;;;;;;;;;;;;6300704;28;19954;-84
2023/09/26 07:59:38;;;;;;;;;;;;;;;;;;6284045;28;20305;-84
2023/09/26 08:02:38;;;;;;;;;;;;;;;;;;6300675;28;20388;-83
2023/09/26 08:05:38;;;;;;;;;;;;;;;;;;6300945;28;19910;-83
2023/09/26 08:08:39;;;;;;;;;;;;;;;;;;6282731;28;19955;-84
2023/09/26 08:11:39;;;;;;;;;;;;;;;;;;6282340;28;19918;-83
2023/09/26 08:14:40;;;;;;;;;;;;;;;;;;6282552;28;19904;-85
2023/09/26 08:17:40;;;;;;;;;;;;;;;;;;6300953;28;19961;-84
2023/09/26 08:20:40;;;;;;;;;;;;;;;;;;6282402;28;19904;-85
2023/09/26 08:23:40;;;;;;;;;;;;;;;;;;6300531;28;19904;-83
2023/09/26 08:26:40;;;;;;;;;;;;;;;;;;6300490;28;19904;-84
2023/09/26 08:29:41;;;;;;;;;;;;;;;;;;6300065;28;19958;-82
2023/09/26 08:32:41;;;;;;;;;;;;;;;;;;6281906;28;20317;-84
2023/09/26 08:35:41;;;;;;;;;;;;;;;;;;6299874;28;19915;-84
2023/09/26 08:38:41;;;;;;;;;;;;;;;;;;6300321;28;19904;-84
2023/09/26 08:41:41;;;;;;;;;;;;;;;;;;6299711;28;19957;-84
2023/09/26 08:44:41;;;;;;;;;;;;;;;;;;6299682;28;19952;-83
2023/09/26 08:47:42;;;;;;;;;;;;;;;;;;6299484;28;19910;-87
2023/09/26 08:50:42;;;;;;;;;;;;;;;;;;6299627;28;19904;-88
2023/09/26 08:53:43;;;;;;;;;;;;;;;;;;6299974;28;19959;-88
2023/09/26 08:56:45;;;;;;;;;;;;;;;;;;6299338;28;20005;-87
2023/09/26 08:59:45;;;;;;;;;;;;;;;;;;6299445;28;19908;-87
2023/09/26 09:02:45;;;;;;;;;;;;;;;;;;6299875;28;19954;-88
2023/09/26 09:05:45;;;;;;;;;;;;;;;;;;6299460;28;19911;-88
2023/09/26 09:08:46;;;;;;;;;;;;;;;;;;6299657;28;19904;-89
2023/09/26 09:11:46;;;;;;;;;;;;;;;;;;6281006;28;19916;-88
2023/09/26 09:14:47;;;;;;;;;;;;;;;;;;6281045;28;19904;-88
2023/09/26 09:17:47;;;;;;;;;;;;;;;;;;6298668;28;19917;-88
2023/09/26 09:20:47;;;;;;;;;;;;;;;;;;6298733;28;19904;-88
2023/09/26 09:23:47;;;;;;;;;;;;;;;;;;6298503;28;19904;-89
2023/09/26 09:26:47;;;;;;;;;;;;;;;;;;6280607;28;19927;-89
2023/09/26 09:29:48;;;;;;;;;;;;;;;;;;6280898;28;19905;-88
2023/09/26 09:32:48;;;;;;;;;;;;;;;;;;6298401;28;20019;-88
2023/09/26 09:35:48;;;;;;;;;;;;;;;;;;6280452;28;19908;-88
2023/09/26 09:38:48;;;;;;;;;;;;;;;;;;6298197;28;20263;-88
2023/09/26 09:41:49;;;;;;;;;;;;;;;;;;6280403;28;19911;-88
2023/09/26 09:44:49;;;;;;;;;;;;;;;;;;6298900;28;19911;-88
2023/09/26 09:47:49;;;;;;;;;;;;;;;;;;6298232;28;19912;-84
2023/09/26 09:50:50;;;;;;;;;;;;;;;;;;6298441;28;19904;-84
2023/09/26 09:53:50;;;;;;;;;;;;;;;;;;6298121;28;19989;-84
2023/09/26 09:56:51;;;;;;;;;;;;;;;;;;6298088;28;20317;-84
2023/09/26 09:59:52;;;;;;;;;;;;;;;;;;6279236;28;19947;-84
2023/09/26 10:02:52;;;;;;;;;;;;;;;;;;6298190;28;19905;-84
2023/09/26 10:05:56;;;;;;;;;;;;;;;;;;6297686;28;19944;-84
2023/09/26 10:08:56;;;;;;;;;;;;;;;;;;6279813;28;20289;-84
2023/09/26 10:11:56;;;;;;;;;;;;;;;;;;6297575;28;19913;-85
2023/09/26 10:14:56;;;;;;;;;;;;;;;;;;6279761;28;19905;-84
2023/09/26 10:17:56;;;;;;;;;;;;;;;;;;6297631;28;19963;-83
2023/09/26 10:20:56;;;;;;;;;;;;;;;;;;6297637;28;19904;-84
2023/09/26 10:23:56;;;;;;;;;;;;;;;;;;6280036;28;19904;-84
2023/09/26 10:26:57;;;;;;;;;;;;;;;;;;6279716;28;19904;-84
2023/09/26 10:29:57;;;;;;;;;;;;;;;;;;6298322;28;19905;-84
2023/09/26 10:32:57;;;;;;;;;;;;;;;;;;6297675;28;19918;-84
2023/09/26 10:35:57;;;;;;;;;;;;;;;;;;6297503;28;19913;-84
2023/09/26 10:38:58;;;;;;;;;;;;;;;;;;6297586;28;19904;-84
2023/09/26 10:42:00;;;;;;;;;;;;;;;;;;6298111;28;19908;-84
2023/09/26 10:45:01;;;;;;;;;;;;;;;;;;6297346;28;19911;-83
2023/09/26 10:48:01;;;;;;;;;;;;;;;;;;6297381;28;19904;-83
2023/09/26 10:51:02;;;;;;;;;;;;;;;;;;6279358;28;19950;-83
2023/09/26 10:54:02;;;;;;;;;;;;;;;;;;6297273;28;19983;-84
2023/09/26 10:57:02;;;;;;;;;;;;;;;;;;6297294;28;19908;-83
2023/09/26 11:00:02;;;;;;;;;;;;;;;;;;6297243;28;19904;-84
2023/09/26 11:03:02;;;;;;;;;;;;;;;;;;6279266;28;20030;-84
2023/09/26 11:06:03;;;;;;;;;;;;;;;;;;6279696;28;19967;-89
2023/09/26 11:09:04;;;;;;;;;;;;;;;;;;6279293;28;19919;-87
2023/09/26 11:12:04;;;;;;;;;;;;;;;;;;6283545;28;19916;-87
2023/09/26 11:15:04;;;;;;;;;;;;;;;;;;6283823;28;19909;-88
2023/09/26 11:18:04;;;;;;;;;;;;;;;;;;6284342;28;19925;-88
2023/09/26 11:21:04;;;;;;;;;;;;;;;;;;6301610;28;19904;-88
2023/09/26 11:24:04;;;;;;;;;;;;;;;;;;6283630;28;19904;-88
2023/09/26 11:27:04;;;;;;;;;;;;;;;;;;6283427;28;19905;-88
2023/09/26 11:30:05;;;;;;;;;;;;;;;;;;6283776;28;20278;-87
2023/09/26 11:33:05;;;;;;;;;;;;;;;;;;6283447;28;19904;-87
2023/09/26 11:36:05;;;;;;;;;;;;;;;;;;6283654;28;19974;-88
2023/09/26 11:39:11;;;;;;;;;;;;;;;;;;6301898;28;19904;-87
2023/09/26 11:42:17;;;;;;;;;;;;;;;;;;6301486;28;19923;-87
2023/09/26 11:45:17;;;;;;;;;;;;;;;;;;6283225;28;20282;-88
2023/09/26 11:48:17;;;;;;;;;;;;;;;;;;6283137;28;19905;-88
2023/09/26 11:51:17;;;;;;;;;;;;;;;;;;6301600;28;19919;-87
2023/09/26 11:54:17;;;;;;;;;;;;;;;;;;6301331;28;19999;-87
2023/09/26 11:57:18;;;;;;;;;;;;;;;;;;6300898;28;19914;-88
2023/09/26 12:00:19;;;;;;;;;;;;;;;;;;6300793;28;19905;-87
2023/09/26 12:03:19;;;;;;;;;;;;;;;;;;6282820;28;19911;-89
2023/09/26 12:06:19;;;;;;;;;;;;;;;;;;6282366;28;19979;-91
2023/09/26 12:09:19;;;;;;;;;;;;;;;;;;6282580;28;19905;-88
2023/09/26 12:12:19;;;;;;;;;;;;;;;;;;6300550;28;20290;-88
2023/09/26 12:15:20;;;;;;;;;;;;;;;;;;6301134;28;19908;-88
2023/09/26 12:18:20;;;;;;;;;;;;;;;;;;6300394;28;19912;-83
2023/09/26 12:21:22;;;;;;;;;;;;;;;;;;6299537;28;19912;-84
2023/09/26 12:24:22;;;;;;;;;;;;;;;;;;6300960;28;19905;-83
2023/09/26 12:27:23;;;;;;;;;;;;;;;;;;6300233;28;19911;-84
2023/09/26 12:30:23;;;;;;;;;;;;;;;;;;6282215;28;19904;-84
2023/09/26 12:33:23;;;;;;;;;;;;;;;;;;6282154;28;20019;-84
2023/09/26 12:36:23;;;;;;;;;;;;;;;;;;6300627;28;20011;-83
2023/09/26 12:39:23;;;;;;;;;;;;;;;;;;6300523;28;20003;-83
2023/09/26 12:42:24;;;;;;;;;;;;;;;;;;6299713;28;19915;-83
2023/09/26 12:45:24;;;;;;;;;;;;;;;;;;6300351;28;20270;-83
2023/09/26 12:48:24;;;;;;;;;;;;;;;;;;6300132;28;19911;-84
2023/09/26 12:51:28;;;;;;;;;;;;;;;;;;6282374;28;19956;-83
2023/09/26 12:54:28;;;;;;;;;;;;;;;;;;6281641;28;19904;-83
2023/09/26 12:57:28;;;;;;;;;;;;;;;;;;6299473;28;19915;-83
2023/09/26 13:00:28;;;;;;;;;;;;;;;;;;6299425;28;19904;-83
2023/09/26 13:03:28;;;;;;;;;;;;;;;;;;6299320;28;19962;-83
2023/09/26 13:06:28;;;;;;;;;;;;;;;;;;6299853;28;20343;-83
2023/09/26 13:09:29;;;;;;;;;;;;;;;;;;6299351;28;19915;-84
2023/09/26 13:12:29;;;;;;;;;;;;;;;;;;6299076;28;19911;-83
2023/09/26 13:15:31;;;;;;;;;;;;;;;;;;6281053;28;19904;-84
2023/09/26 13:18:31;;;;;;;;;;;;;;;;;;6299006;28;20003;-84
2023/09/26 13:21:31;;;;;;;;;;;;;;;;;;6298851;28;19905;-83
2023/09/26 13:24:31;;;;;;;;;;;;;;;;;;6299012;28;19904;-83
2023/09/26 13:27:32;;;;;;;;;;;;;;;;;;6299142;28;20340;-83
2023/09/26 13:30:34;;;;;;;;;;;;;;;;;;6298615;28;19915;-83
2023/09/26 13:33:34;;;;;;;;;;;;;;;;;;6280453;28;19914;-83
2023/09/26 13:36:34;;;;;;;;;;;;;;;;;;6298119;28;19916;-83
2023/09/26 13:39:34;;;;;;;;;;;;;;;;;;6298218;28;19908;-84
2023/09/26 13:42:34;;;;;;;;;;;;;;;;;;6298193;28;19909;-83
2023/09/26 13:45:34;;;;;;;;;;;;;;;;;;6280325;28;20366;-84
2023/09/26 13:48:34;;;;;;;;;;;;;;;;;;6280316;28;19904;-84
2023/09/26 13:51:34;;;;;;;;;;;;;;;;;;6297958;28;19904;-84
2023/09/26 13:54:35;;;;;;;;;;;;;;;;;;6298598;28;19905;-84
2023/09/26 13:57:35;;;;;;;;;;;;;;;;;;6298183;28;19923;-85
2023/09/26 14:00:37;;;;;;;;;;;;;;;;;;6298503;28;19904;-84
2023/09/26 14:03:37;;;;;;;;;;;;;;;;;;6279997;28;19911;-83
2023/09/26 14:06:37;;;;;;;;;;;;;;;;;;6280159;28;19908;-83
2023/09/26 14:09:38;;;;;;;;;;;;;;;;;;6297937;28;20381;-84
2023/09/26 14:12:38;;;;;;;;;;;;;;;;;;6297715;28;20343;-85
2023/09/26 14:15:38;;;;;;;;;;;;;;;;;;6279640;28;20385;-84
2023/09/26 14:18:39;;;;;;;;;;;;;;;;;;6297732;28;19943;-84
2023/09/26 14:21:39;;;;;;;;;;;;;;;;;;6279732;28;19912;-84
2023/09/26 14:24:41;;;;;;;;;;;;;;;;;;6297637;28;20329;-84
2023/09/26 14:27:41;;;;;;;;;;;;;;;;;;6297495;28;20278;-88
2023/09/26 14:30:41;;;;;;;;;;;;;;;;;;6297998;28;19908;-87
2023/09/26 14:33:41;;;;;;;;;;;;;;;;;;6297735;28;19928;-87
2023/09/26 14:36:42;;;;;;;;;;;;;;;;;;6297118;28;20360;-86
2023/09/26 14:39:42;;;;;;;;;;;;;;;;;;6298275;28;19927;-86
2023/09/26 14:42:42;;;;;;;;;;;;;;;;;;6297733;28;20343;-86
2023/09/26 14:45:43;;;;;;;;;;;;;;;;;;6301008;28;19909;-86
2023/09/26 14:48:44;;;;;;;;;;;;;;;;;;6302872;28;19908;-86
2023/09/26 14:51:44;;;;;;;;;;;;;;;;;;6302829;28;20278;-86
2023/09/26 14:54:44;;;;;;;;;;;;;;;;;;6302635;28;19908;-85
2023/09/26 14:57:44;;;;;;;;;;;;;;;;;;6284112;28;19951;-86
2023/09/26 15:00:46;;;;;;;;;;;;;;;;;;6302190;28;19909;-86
2023/09/26 15:03:46;;;;;;;;;;;;;;;;;;6302617;28;19953;-86
2023/09/26 15:06:47;;;;;;;;;;;;;;;;;;6302566;28;19908;-87
2023/09/26 15:09:47;;;;;;;;;;;;;;;;;;6302098;28;20341;-87
2023/09/26 15:12:47;;;;;;;;;;;;;;;;;;6302672;28;20000;-89
2023/09/26 15:15:48;;;;;;;;;;;;;;;;;;6302308;28;20003;-84
2023/09/26 15:18:48;;;;;;;;;;;;;;;;;;6301659;28;19904;-84
2023/09/26 15:21:48;;;;;;;;;;;;;;;;;;6301444;28;19904;-86
2023/09/26 15:24:48;;;;;;;;;;;;;;;;;;6283864;28;20421;-86
2023/09/26 15:27:48;;;;;;;;;;;;;;;;;;6307120;28;20323;-88
2023/09/26 15:30:49;;;;;;;;;;;;;;;;;;6306412;28;19908;-88
2023/09/26 15:33:49;;;;;;;;;;;;;;;;;;6303372;28;19991;-88
2023/09/26 15:36:49;;;;;;;;;;;;;;;;;;6305326;28;19958;-89
2023/09/26 15:39:49;;;;;;;;;;;;;;;;;;6309414;28;19908;-91
2023/09/26 15:42:49;;;;;;;;;;;;;;;;;;6283940;28;19912;-89
2023/09/26 15:45:50;;;;;;;;;;;;;;;;;;6303005;28;20228;-89
2023/09/26 15:48:50;;;;;;;;;;;;;;;;;;6291656;28;19913;-80
2023/09/26 15:51:50;;;;;;;;;;;;;;;;;;6308877;28;19951;-80
2023/09/26 15:54:51;;;;;;;;;;;;;;;;;;6303562;28;19904;-81
2023/09/26 15:57:51;;;;;;;;;;;;;;;;;;6302274;28;19915;-82
2023/09/26 16:00:51;;;;;;;;;;;;;;;;;;6286766;28;19904;-81
2023/09/26 16:03:52;;;;;;;;;;;;;;;;;;6305393;28;20329;-81
2023/09/26 16:06:52;;;;;;;;;;;;;;;;;;6288321;28;20368;-81
2023/09/26 16:09:52;;;;;;;;;;;;;;;;;;6309092;28;19920;-81
2023/09/26 16:12:52;;;;;;;;;;;;;;;;;;6291862;28;19904;-82
2023/09/26 16:15:53;;;;;;;;;;;;;;;;;;6308382;28;19912;-81
2023/09/26 16:18:54;;;;;;;;;;;;;;;;;;6287003;28;20361;-83
2023/09/26 16:21:54;;;;;;;;;;;;;;;;;;6284985;28;19995;-84
2023/09/26 16:24:54;;;;;;;;;;;;;;;;;;6303584;28;20328;-83
2023/09/26 16:27:57;;;;;;;;;;;;;;;;;;6285005;28;19908;-84
2023/09/26 16:31:01;;;;;;;;;;;;;;;;;;6303897;28;19911;-84
2023/09/26 16:34:01;;;;;;;;;;;;;;;;;;6303614;28;19904;-84
2023/09/26 16:37:01;;;;;;;;;;;;;;;;;;6303870;28;20271;-84
2023/09/26 16:40:01;;;;;;;;;;;;;;;;;;6285146;28;19904;-84
2023/09/26 16:43:01;;;;;;;;;;;;;;;;;;6303136;28;19908;-83
2023/09/26 16:46:01;;;;;;;;;;;;;;;;;;6304209;28;19912;-89
2023/09/26 16:49:02;;;;;;;;;;;;;;;;;;6283721;28;20409;-89
2023/09/26 16:52:02;;;;;;;;;;;;;;;;;;6284744;28;19905;-89
2023/09/26 16:55:02;;;;;;;;;;;;;;;;;;6302269;28;19904;-89
2023/09/26 16:58:03;;;;;;;;;;;;;;;;;;6303562;28;19908;-83
2023/09/26 17:01:03;;;;;;;;;;;;;;;;;;6305174;28;19946;-84
2023/09/26 17:04:03;;;;;;;;;;;;;;;;;;6285450;28;19995;-84
2023/09/26 17:07:04;;;;;;;;;;;;;;;;;;6302553;28;20334;-84
2023/09/26 17:10:04;;;;;;;;;;;;;;;;;;6284413;28;19916;-84
2023/09/26 17:13:04;;;;;;;;;;;;;;;;;;6302897;28;19908;-82
2023/09/26 17:16:05;;;;;;;;;;;;;;;;;;6301153;28;19920;-83
2023/09/26 17:19:05;;;;;;;;;;;;;;;;;;6284366;28;19904;-83
2023/09/26 17:22:06;;;;;;;;;;;;;;;;;;6284276;28;19912;-82
2023/09/26 17:25:06;;;;;;;;;;;;;;;;;;6283348;28;19904;-83
2023/09/26 17:28:06;;;;;;;;;;;;;;;;;;6301571;28;19904;-82
2023/09/26 17:31:06;;;;;;;;;;;;;;;;;;6301989;28;19959;-82
2023/09/26 17:34:06;;;;;;;;;;;;;;;;;;6284914;28;19927;-83
2023/09/26 17:37:07;;;;;;;;;;;;;;;;;;6301654;28;20011;-83
2023/09/26 17:40:07;;;;;;;;;;;;;;;;;;6301775;28;19927;-83
2023/09/26 17:43:07;;;;;;;;;;;;;;;;;;6284484;28;19904;-82
2023/09/26 17:46:07;;;;;;;;;;;;;;;;;;6302644;28;20346;-83
2023/09/26 17:49:07;;;;;;;;;;;;;;;;;;6283954;28;19999;-83
2023/09/26 17:52:07;;;;;;;;;;;;;;;;;;6304921;28;19911;-83
2023/09/26 17:55:08;;;;;;;;;;;;;;;;;;6304463;28;19927;-83
2023/09/26 17:58:08;;;;;;;;;;;;;;;;;;6306689;28;19962;-89
2023/09/26 18:01:08;;;;;;;;;;;;;;;;;;6302217;28;19940;-89
2023/09/26 18:04:08;;;;;;;;;;;;;;;;;;6301282;28;19911;-89
2023/09/26 18:07:08;;;;;;;;;;;;;;;;;;6283506;28;19904;-88
2023/09/26 18:10:08;;;;;;;;;;;;;;;;;;6301089;28;19912;-89
2023/09/26 18:13:09;;;;;;;;;;;;;;;;;;6300856;28;19908;-89
2023/09/26 18:16:09;;;;;;;;;;;;;;;;;;6282605;28;20006;-89
2023/09/26 18:19:09;;;;;;;;;;;;;;;;;;6316691;28;19904;-89
2023/09/26 18:22:09;;;;;;;;;;;;;;;;;;6318607;28;19935;-89
2023/09/26 18:25:10;;;;;;;;;;;;;;;;;;6301785;28;19908;-89
2023/09/26 18:28:14;;;;;;;;;;;;;;;;;;6282791;28;20388;-89
2023/09/26 18:31:14;;;;;;;;;;;;;;;;;;6300425;28;19908;-89
2023/09/26 18:34:14;;;;;;;;;;;;;;;;;;6300261;28;19915;-89
2023/09/26 18:37:14;;;;;;;;;;;;;;;;;;6300256;28;19908;-89
2023/09/26 18:40:15;;;;;;;;;;;;;;;;;;6300606;28;19915;-89
2023/09/26 18:43:15;;;;;;;;;;;;;;;;;;6282753;28;19904;-89
2023/09/26 18:46:16;;;;;;;;;;;;;;;;;;6300375;28;19905;-89
2023/09/26 18:49:17;;;;;;;;;;;;;;;;;;6282880;28;19954;-89
2023/09/26 18:52:17;;;;;;;;;;;;;;;;;;6300889;28;19908;-89
2023/09/26 18:55:17;;;;;;;;;;;;;;;;;;6282513;28;20333;-89
2023/09/26 18:58:17;;;;;;;;;;;;;;;;;;6282119;28;19916;-89
2023/09/26 19:01:17;;;;;;;;;;;;;;;;;;6300766;28;19928;-89
2023/09/26 19:04:17;;;;;;;;;;;;;;;;;;6300153;28;19986;-89
2023/09/26 19:07:17;;;;;;;;;;;;;;;;;;6281783;28;20388;-88
2023/09/26 19:10:17;;;;;;;;;;;;;;;;;;6299029;28;19912;-89
2023/09/26 19:13:18;;;;;;;;;;;;;;;;;;6299765;28;19905;-89
2023/09/26 19:16:18;;;;;;;;;;;;;;;;;;6281595;28;19928;-83
2023/09/26 19:19:18;;;;;;;;;;;;;;;;;;6282854;28;19909;-83
2023/09/26 19:22:19;;;;;;;;;;;;;;;;;;6281860;28;20275;-82
2023/09/26 19:25:19;;;;;;;;;;;;;;;;;;6298649;28;19905;-81
2023/09/26 19:28:20;;;;;;;;;;;;;;;;;;6297501;28;19905;-83
2023/09/26 19:31:20;;;;;;;;;;;;;;;;;;6298855;28;19961;-83
2023/09/26 19:34:20;;;;;;;;;;;;;;;;;;6283635;28;19904;-83
2023/09/26 19:37:20;;;;;;;;;;;;;;;;;;6302050;28;19958;-82
2023/09/26 19:40:20;;;;;;;;;;;;;;;;;;6301334;28;20005;-83
2023/09/26 19:43:20;;;;;;;;;;;;;;;;;;6283119;28;20361;-84
2023/09/26 19:46:22;;;;;;;;;;;;;;;;;;6283371;28;19912;-83
2023/09/26 19:49:22;;;;;;;;;;;;;;;;;;6301909;28;19947;-82
2023/09/26 19:52:22;;;;;;;;;;;;;;;;;;6301490;28;19904;-82
2023/09/26 19:55:23;;;;;;;;;;;;;;;;;;6283374;28;19947;-83
2023/09/26 19:58:23;;;;;;;;;;;;;;;;;;6282957;28;20359;-82
2023/09/26 20:01:23;;;;;;;;;;;;;;;;;;6283004;28;19947;-83
2023/09/26 20:04:23;;;;;;;;;;;;;;;;;;6283123;28;19904;-83
2023/09/26 20:07:23;;;;;;;;;;;;;;;;;;6283173;28;20358;-83
2023/09/26 20:10:24;;;;;;;;;;;;;;;;;;6300606;28;19923;-81
2023/09/26 20:13:24;;;;;;;;;;;;;;;;;;6301382;28;19908;-83
2023/09/26 20:16:25;;;;;;;;;;;;;;;;;;6301045;28;19966;-89
2023/09/26 20:19:27;;;;;;;;;;;;;;;;;;6301057;28;20329;-88
2023/09/26 20:22:30;;;;;;;;;;;;;;;;;;6300887;28;19904;-88
2023/09/26 20:25:30;;;;;;;;;;;;;;;;;;6300740;28;19911;-88
2023/09/26 20:28:30;;;;;;;;;;;;;;;;;;6300493;28;20378;-88
2023/09/26 20:31:30;;;;;;;;;;;;;;;;;;6300518;28;19908;-88